Time;durP1;ratioP1;P1;durP2;ratioP2;P2;SDS_P1;SDS_P2;PMS_P1;PMS_P2;Temp;Humidity;BMP_temperature;BMP_pressure;BME280_temperature;BME280_humidity;BME280_pressure;Samples;Min_cycle;Max_cycle;Signal;HPM_P1;HPM_P2
2023/11/15 00:00:38;;;;;;;10.82;2.30;;;18.60;91.50;;;;;;5038503;28;20033;-78
2023/11/15 00:03:04;;;;;;;6.90;2.05;;;18.60;91.50;;;;;;5055882;28;20101;-78
2023/11/15 00:05:29;;;;;;;9.63;1.98;;;18.60;91.40;;;;;;5037906;28;20055;-78
2023/11/15 00:07:55;;;;;;;10.73;2.20;;;18.60;91.30;;;;;;5056295;28;20044;-78
2023/11/15 00:10:24;;;;;;;9.50;2.40;;;18.70;91.30;;;;;;5038501;28;20098;-78
2023/11/15 00:12:50;;;;;;;9.27;1.88;;;18.70;91.20;;;;;;5056088;28;20056;-77
2023/11/15 00:15:16;;;;;;;9.25;2.47;;;18.80;91.20;;;;;;5037958;28;20396;-78
2023/11/15 00:17:42;;;;;;;8.57;2.05;;;18.70;91.10;;;;;;5055794;28;20108;-78
2023/11/15 00:20:10;;;;;;;8.55;1.98;;;18.80;91.20;;;;;;5038069;28;20029;-77
2023/11/15 00:22:36;;;;;;;10.95;2.45;;;18.80;91.20;;;;;;5056482;28;20117;-78
2023/11/15 00:25:02;;;;;;;14.18;2.28;;;18.80;91.10;;;;;;5055895;28;20116;-77
2023/11/15 00:27:27;;;;;;;10.35;2.45;;;18.80;91.10;;;;;;5056120;28;20504;-78
2023/11/15 00:29:53;;;;;;;8.05;2.10;;;18.90;91.10;;;;;;5055752;28;20049;-78
2023/11/15 00:32:19;;;;;;;7.13;1.67;;;18.90;91.20;;;;;;5055481;28;20055;-77
2023/11/15 00:34:46;;;;;;;6.25;2.00;;;18.90;91.20;;;;;;5037837;28;20377;-78
2023/11/15 00:37:12;;;;;;;8.07;2.20;;;18.90;91.20;;;;;;5055902;28;20120;-77
2023/11/15 00:39:41;;;;;;;7.68;2.17;;;18.90;91.30;;;;;;5055577;28;20032;-77
2023/11/15 00:42:10;;;;;;;11.57;2.38;;;18.90;91.30;;;;;;5037414;28;20024;-77
2023/11/15 00:44:37;;;;;;;9.60;2.40;;;19.00;91.50;;;;;;5055040;28;20048;-77
2023/11/15 00:47:05;;;;;;;10.88;2.42;;;19.00;91.50;;;;;;5055460;28;20049;-77
2023/11/15 00:49:37;;;;;;;10.88;2.35;;;19.00;91.60;;;;;;5037207;28;20401;-76
2023/11/15 00:52:03;;;;;;;9.25;2.00;;;19.00;91.70;;;;;;5037073;28;20108;-77
2023/11/15 00:54:29;;;;;;;9.43;2.53;;;19.00;91.70;;;;;;5055033;28;20029;-78
2023/11/15 00:56:55;;;;;;;10.65;2.63;;;19.00;91.80;;;;;;5055023;28;20056;-77
2023/11/15 00:59:22;;;;;;;8.90;2.05;;;19.00;91.90;;;;;;5055191;28;20033;-78
2023/11/15 01:01:57;;;;;;;8.60;2.33;;;19.00;92.00;;;;;;5055056;28;20108;-79
2023/11/15 01:04:24;;;;;;;15.48;2.50;;;19.00;92.00;;;;;;5055001;28;20057;-76
2023/11/15 01:06:50;;;;;;;11.30;2.40;;;19.00;92.10;;;;;;5055013;28;20085;-78
2023/11/15 01:09:16;;;;;;;9.23;2.40;;;19.00;92.20;;;;;;5054897;28;20112;-78
2023/11/15 01:11:41;;;;;;;12.15;2.47;;;19.00;92.30;;;;;;5053666;28;20025;-77
2023/11/15 01:14:07;;;;;;;7.45;2.40;;;19.00;92.30;;;;;;5054789;28;20033;-76
2023/11/15 01:16:33;;;;;;;12.25;2.10;;;19.00;92.40;;;;;;5054827;28;20040;-77
2023/11/15 01:18:58;;;;;;;9.98;2.50;;;19.00;92.50;;;;;;5036753;28;20033;-77
2023/11/15 01:21:25;;;;;;;7.85;2.42;;;19.00;92.50;;;;;;5054728;28;20496;-77
2023/11/15 01:23:51;;;;;;;6.95;2.10;;;19.00;92.60;;;;;;5054532;28;20029;-76
2023/11/15 01:26:18;;;;;;;10.35;2.30;;;19.00;92.60;;;;;;5054830;28;20039;-76
2023/11/15 01:28:44;;;;;;;10.02;2.33;;;19.00;92.70;;;;;;5054765;28;20048;-77
2023/11/15 01:31:10;;;;;;;9.68;2.40;;;19.00;92.70;;;;;;5054252;28;20033;-77
2023/11/15 01:33:35;;;;;;;12.63;2.47;;;19.00;92.70;;;;;;5054373;28;20112;-76
2023/11/15 01:36:01;;;;;;;10.88;2.55;;;19.10;92.80;;;;;;5054157;28;20113;-78
2023/11/15 01:38:29;;;;;;;9.73;2.47;;;19.10;92.70;;;;;;5054299;28;20029;-77
2023/11/15 01:40:55;;;;;;;11.00;2.28;;;19.10;92.80;;;;;;5036072;28;20041;-76
2023/11/15 01:43:21;;;;;;;8.00;2.33;;;19.10;92.80;;;;;;5054229;28;20086;-78
2023/11/15 01:45:47;;;;;;;10.35;2.50;;;19.10;92.80;;;;;;5053815;28;20039;-77
2023/11/15 01:48:16;;;;;;;11.70;2.83;;;19.10;92.90;;;;;;5053949;28;20112;-77
2023/11/15 01:50:43;;;;;;;9.45;2.50;;;19.10;93.00;;;;;;5054215;28;20095;-79
2023/11/15 01:53:09;;;;;;;8.18;2.50;;;19.10;93.00;;;;;;5053887;28;20393;-78
2023/11/15 01:55:37;;;;;;;7.25;2.30;;;19.10;93.10;;;;;;5036169;28;20489;-78
2023/11/15 01:58:04;;;;;;;10.38;2.53;;;19.10;93.10;;;;;;5053934;28;20048;-76
2023/11/15 02:00:32;;;;;;;7.10;2.20;;;19.10;93.20;;;;;;5036189;28;20037;-77
2023/11/15 02:02:58;;;;;;;9.38;2.20;;;19.10;93.20;;;;;;5035813;28;20037;-78
2023/11/15 02:05:25;;;;;;;9.25;2.55;;;19.10;93.30;;;;;;5053665;28;20052;-78
2023/11/15 02:07:52;;;;;;;9.63;2.47;;;19.10;93.40;;;;;;5035611;28;20025;-77
2023/11/15 02:10:19;;;;;;;9.30;2.72;;;19.10;93.40;;;;;;5035715;28;20102;-77
2023/11/15 02:12:46;;;;;;;9.18;2.53;;;19.10;93.40;;;;;;5053809;28;20064;-77
2023/11/15 02:15:15;;;;;;;11.55;2.97;;;19.10;93.50;;;;;;5035685;28;20033;-77
2023/11/15 02:17:42;;;;;;;13.00;2.63;;;19.20;93.50;;;;;;5053560;28;20426;-77
2023/11/15 02:20:08;;;;;;;13.45;2.83;;;19.10;93.50;;;;;;5035668;28;20039;-76
2023/11/15 02:22:45;;;;;;;15.10;2.63;;;19.20;93.60;;;;;;5053253;28;20117;-77
2023/11/15 02:25:12;;;;;;;13.55;3.03;;;19.10;93.50;;;;;;5053567;28;20055;-76
2023/11/15 02:27:39;;;;;;;9.43;2.47;;;19.10;93.60;;;;;;5035961;28;20417;-77
2023/11/15 02:30:07;;;;;;;12.45;3.00;;;19.10;93.60;;;;;;5053167;28;20057;-76
2023/11/15 02:32:33;;;;;;;13.52;3.17;;;19.20;93.70;;;;;;5053290;28;20083;-77
2023/11/15 02:34:58;;;;;;;9.98;2.50;;;19.10;93.60;;;;;;5035660;28;20044;-77
2023/11/15 02:37:25;;;;;;;13.63;3.17;;;19.20;93.70;;;;;;5035257;28;20037;-76
2023/11/15 02:39:51;;;;;;;11.18;3.00;;;19.20;93.70;;;;;;5053930;28;20060;-76
2023/11/15 02:42:17;;;;;;;10.07;2.50;;;19.20;93.70;;;;;;5053489;28;20476;-77
2023/11/15 02:44:42;;;;;;;12.23;3.25;;;19.20;93.80;;;;;;5035288;28;20052;-76
2023/11/15 02:47:08;;;;;;;10.48;2.75;;;19.20;93.80;;;;;;5053297;28;20028;-77
2023/11/15 02:49:36;;;;;;;10.23;2.42;;;19.20;93.80;;;;;;5035341;28;20080;-76
2023/11/15 02:52:02;;;;;;;9.18;2.53;;;19.20;93.80;;;;;;5052996;28;20381;-77
2023/11/15 02:54:30;;;;;;;9.85;2.45;;;19.20;93.80;;;;;;5035267;28;20037;-76
2023/11/15 02:56:56;;;;;;;8.57;2.08;;;19.20;93.70;;;;;;5052877;28;20036;-78
2023/11/15 02:59:22;;;;;;;7.32;2.33;;;19.20;93.70;;;;;;5053276;28;20041;-77
2023/11/15 03:01:51;;;;;;;11.32;2.80;;;19.20;93.80;;;;;;5053301;28;20040;-77
2023/11/15 03:04:16;;;;;;;10.43;3.03;;;19.20;93.80;;;;;;5058042;28;20037;-77
2023/11/15 03:06:43;;;;;;;8.40;2.20;;;19.20;93.80;;;;;;5055346;28;20031;-75
2023/11/15 03:09:08;;;;;;;11.77;3.05;;;19.20;93.80;;;;;;5053608;28;20033;-76
2023/11/15 03:11:34;;;;;;;12.18;2.80;;;19.20;93.70;;;;;;5037436;28;20123;-78
2023/11/15 03:14:03;;;;;;;10.25;2.67;;;19.20;93.80;;;;;;5052949;28;20033;-77
2023/11/15 03:16:29;;;;;;;10.52;2.42;;;19.20;93.80;;;;;;5034528;28;20107;-76
2023/11/15 03:18:55;;;;;;;10.55;2.70;;;19.20;93.80;;;;;;5052613;28;20037;-76
2023/11/15 03:21:21;;;;;;;6.47;2.25;;;19.20;93.80;;;;;;5053182;28;20033;-77
2023/11/15 03:23:47;;;;;;;6.65;2.20;;;19.20;93.90;;;;;;5052443;28;20032;-78
2023/11/15 03:26:13;;;;;;;14.10;3.05;;;19.20;93.80;;;;;;5052717;28;20516;-77
2023/11/15 03:28:39;;;;;;;14.45;3.13;;;19.20;93.80;;;;;;5052624;28;20048;-76
2023/11/15 03:31:05;;;;;;;10.50;2.67;;;19.20;93.80;;;;;;5034871;28;20103;-78
2023/11/15 03:33:31;;;;;;;10.65;2.45;;;19.20;93.80;;;;;;5051930;28;20109;-77
2023/11/15 03:35:57;;;;;;;8.15;2.70;;;19.20;93.80;;;;;;5052175;28;20111;-76
2023/11/15 03:38:23;;;;;;;10.52;2.90;;;19.20;93.80;;;;;;5052559;28;20048;-78
2023/11/15 03:40:49;;;;;;;11.35;2.30;;;19.20;93.90;;;;;;5052478;28;20060;-77
2023/11/15 03:43:15;;;;;;;11.13;2.72;;;19.20;93.90;;;;;;5052433;28;20029;-77
2023/11/15 03:45:41;;;;;;;12.40;2.70;;;19.20;93.90;;;;;;5052389;28;20041;-76
2023/11/15 03:48:07;;;;;;;9.80;2.20;;;19.20;94.00;;;;;;5052764;28;20112;-78
2023/11/15 03:50:32;;;;;;;13.90;3.05;;;19.20;93.90;;;;;;5053031;28;20040;-77
2023/11/15 03:53:00;;;;;;;12.18;3.13;;;19.20;94.00;;;;;;5053007;28;20033;-78
2023/11/15 03:55:25;;;;;;;10.13;2.80;;;19.20;94.00;;;;;;5052868;28;20041;-78
2023/11/15 03:57:51;;;;;;;10.52;2.80;;;19.20;94.00;;;;;;5052711;28;20021;-76
2023/11/15 04:00:17;;;;;;;12.77;3.22;;;19.20;94.10;;;;;;5052332;28;20029;-77
2023/11/15 04:02:43;;;;;;;14.02;3.33;;;19.20;94.10;;;;;;5052704;28;20036;-77
2023/11/15 04:05:09;;;;;;;15.20;2.85;;;19.20;94.10;;;;;;5052872;28;20045;-77
2023/11/15 04:07:36;;;;;;;8.65;2.42;;;19.20;94.20;;;;;;5053004;28;20052;-78
2023/11/15 04:10:02;;;;;;;9.95;2.70;;;19.20;94.20;;;;;;5052282;28;20064;-77
2023/11/15 04:12:28;;;;;;;14.00;3.10;;;19.10;94.10;;;;;;5034686;28;20508;-77
2023/11/15 04:14:53;;;;;;;9.15;2.92;;;19.10;94.20;;;;;;5052795;28;20041;-77
2023/11/15 04:17:19;;;;;;;11.73;2.85;;;19.10;94.20;;;;;;5052134;28;20037;-77
2023/11/15 04:19:45;;;;;;;10.02;2.70;;;19.00;94.30;;;;;;5034326;28;20358;-78
2023/11/15 04:22:11;;;;;;;11.52;2.70;;;19.00;94.40;;;;;;5034367;28;20027;-77
2023/11/15 04:24:40;;;;;;;12.60;2.92;;;18.90;94.40;;;;;;5051914;28;20064;-78
2023/11/15 04:27:06;;;;;;;13.88;2.90;;;18.90;94.50;;;;;;5052178;28;20033;-77
2023/11/15 04:29:32;;;;;;;11.93;2.92;;;18.90;94.50;;;;;;5051571;28;20061;-76
2023/11/15 04:31:58;;;;;;;15.80;3.65;;;18.90;94.60;;;;;;5033669;28;20029;-77
2023/11/15 04:34:26;;;;;;;12.05;3.28;;;18.90;94.60;;;;;;5034042;28;20037;-78
2023/11/15 04:36:51;;;;;;;12.80;3.20;;;18.90;94.60;;;;;;5052165;28;20033;-77
2023/11/15 04:39:18;;;;;;;11.63;3.13;;;18.90;94.60;;;;;;5057594;28;20032;-76
2023/11/15 04:41:45;;;;;;;14.55;3.33;;;19.00;94.70;;;;;;5054599;28;20108;-78
2023/11/15 04:44:11;;;;;;;15.93;3.72;;;19.00;94.70;;;;;;5052398;28;20045;-78
2023/11/15 04:46:37;;;;;;;16.83;3.38;;;19.00;94.70;;;;;;5055786;28;20033;-77
2023/11/15 04:49:06;;;;;;;11.70;3.22;;;19.00;94.70;;;;;;5055710;28;20087;-76
2023/11/15 04:51:32;;;;;;;13.48;3.65;;;19.00;94.80;;;;;;5055770;28;20029;-77
2023/11/15 04:53:58;;;;;;;12.43;3.13;;;19.00;94.70;;;;;;5037325;28;20120;-78
2023/11/15 04:56:24;;;;;;;11.70;3.10;;;19.00;94.80;;;;;;5055495;28;20021;-77
2023/11/15 04:58:52;;;;;;;14.23;3.67;;;19.00;94.80;;;;;;5055336;28;20083;-77
2023/11/15 05:01:18;;;;;;;14.77;3.65;;;19.00;94.90;;;;;;5054943;28;20124;-77
2023/11/15 05:03:44;;;;;;;14.98;3.80;;;19.00;95.00;;;;;;5037040;28;20037;-77
2023/11/15 05:06:10;;;;;;;12.45;3.67;;;19.00;95.00;;;;;;5055042;28;20400;-79
2023/11/15 05:08:36;;;;;;;14.05;4.05;;;18.90;94.90;;;;;;5055374;28;20044;-77
2023/11/15 05:11:02;;;;;;;15.73;4.80;;;18.90;95.00;;;;;;5037673;28;20071;-79
2023/11/15 05:13:31;;;;;;;12.10;3.92;;;18.90;95.10;;;;;;5054911;28;20481;-77
2023/11/15 05:15:57;;;;;;;16.70;3.58;;;18.80;95.10;;;;;;5055296;28;20455;-76
2023/11/15 05:18:23;;;;;;;14.68;3.45;;;18.80;95.20;;;;;;5020449;28;20477;-78
2023/11/15 05:20:51;;;;;;;13.68;4.05;;;18.80;95.10;;;;;;5055028;28;20051;-77
2023/11/15 05:23:17;;;;;;;18.85;3.83;;;18.80;95.20;;;;;;5054866;28;20037;-77
2023/11/15 05:25:43;;;;;;;13.13;3.50;;;18.80;95.30;;;;;;5054572;28;20079;-76
2023/11/15 05:28:10;;;;;;;13.77;4.10;;;18.80;95.30;;;;;;5036868;28;20111;-76
2023/11/15 05:30:36;;;;;;;13.88;4.22;;;18.80;95.30;;;;;;5054699;28;20048;-78
2023/11/15 05:33:01;;;;;;;18.85;4.25;;;18.80;95.40;;;;;;5054819;28;20025;-78
2023/11/15 05:35:27;;;;;;;18.02;4.57;;;18.80;95.30;;;;;;5054635;28;20029;-77
2023/11/15 05:37:53;;;;;;;21.35;4.93;;;18.80;95.30;;;;;;5054647;28;20114;-78
2023/11/15 05:40:19;;;;;;;17.45;4.63;;;18.80;95.40;;;;;;5036495;28;20033;-77
2023/11/15 05:42:44;;;;;;;22.25;5.20;;;18.80;95.40;;;;;;5054310;28;20109;-78
2023/11/15 05:45:10;;;;;;;21.42;5.03;;;18.80;95.40;;;;;;5036454;28;20077;-77
2023/11/15 05:47:40;;;;;;;20.88;4.00;;;18.70;95.40;;;;;;5036530;28;20120;-77
2023/11/15 05:50:10;;;;;;;19.15;4.65;;;18.70;95.50;;;;;;5054531;28;20108;-78
2023/11/15 05:52:38;;;;;;;23.10;5.07;;;18.70;95.50;;;;;;5057176;28;20041;-77
2023/11/15 05:55:08;;;;;;;19.38;4.15;;;18.70;95.60;;;;;;5057662;28;20037;-79
2023/11/15 05:57:33;;;;;;;19.48;4.47;;;18.60;95.60;;;;;;5048584;28;20068;-77
2023/11/15 06:00:00;;;;;;;24.20;5.28;;;18.60;95.70;;;;;;5078198;28;20097;-78
2023/11/15 06:02:26;;;;;;;20.33;4.97;;;18.60;95.70;;;;;;5047207;28;20500;-77
2023/11/15 06:04:53;;;;;;;26.63;5.53;;;18.60;95.70;;;;;;5037967;28;20041;-78
2023/11/15 06:07:18;;;;;;;16.52;4.97;;;18.60;95.80;;;;;;5036220;28;20392;-78
2023/11/15 06:09:49;;;;;;;26.23;5.90;;;18.60;95.80;;;;;;5036386;28;20039;-78
2023/11/15 06:12:15;;;;;;;20.95;5.45;;;18.60;95.80;;;;;;5054553;28;20152;-78
2023/11/15 06:14:41;;;;;;;19.45;4.82;;;18.60;95.80;;;;;;5054150;28;20388;-78
2023/11/15 06:17:07;;;;;;;27.42;6.03;;;18.60;95.90;;;;;;5036090;28;20033;-79
2023/11/15 06:19:33;;;;;;;25.98;5.70;;;18.70;95.90;;;;;;5054032;28;20076;-78
2023/11/15 06:22:00;;;;;;;28.45;5.93;;;18.70;95.90;;;;;;5053729;28;20061;-77
2023/11/15 06:24:26;;;;;;;20.17;6.22;;;18.70;95.90;;;;;;5036056;28;20068;-79
2023/11/15 06:26:54;;;;;;;25.08;5.65;;;18.70;95.90;;;;;;5035695;28;20037;-76
2023/11/15 06:29:21;;;;;;;21.45;5.63;;;18.70;95.90;;;;;;5053405;28;20535;-78
2023/11/15 06:31:48;;;;;;;18.50;5.18;;;18.70;95.90;;;;;;5053414;28;20037;-79
2023/11/15 06:34:14;;;;;;;16.52;4.90;;;18.80;95.90;;;;;;5053322;28;20067;-77
2023/11/15 06:36:44;;;;;;;24.13;6.63;;;18.80;95.90;;;;;;5035671;28;20143;-79
2023/11/15 06:39:12;;;;;;;28.52;6.25;;;18.80;95.90;;;;;;5053562;28;20082;-79
2023/11/15 06:41:38;;;;;;;26.77;5.63;;;18.80;95.90;;;;;;5053572;28;20485;-79
2023/11/15 06:44:08;;;;;;;28.05;5.63;;;18.90;95.90;;;;;;5053028;28;20036;-78
2023/11/15 06:46:41;;;;;;;24.75;7.03;;;18.90;96.10;;;;;;5035220;28;20084;-75
2023/11/15 06:49:10;;;;;;;17.90;4.95;;;19.10;95.80;;;;;;5054667;28;20029;-77
2023/11/15 06:51:37;;;;;;;22.45;5.43;;;19.20;95.60;;;;;;5040935;28;20033;-75
2023/11/15 06:54:03;;;;;;;23.65;5.90;;;19.30;95.50;;;;;;5035286;28;20041;-77
2023/11/15 06:56:29;;;;;;;34.05;6.03;;;19.30;95.40;;;;;;5055719;28;20082;-79
2023/11/15 06:58:54;;;;;;;24.13;5.47;;;19.50;95.30;;;;;;5064887;28;20033;-77
2023/11/15 07:01:21;;;;;;;25.63;5.50;;;19.70;95.10;;;;;;5035059;28;20029;-79
2023/11/15 07:03:49;;;;;;;27.50;5.95;;;20.10;94.70;;;;;;5053092;28;20056;-79
2023/11/15 07:06:15;;;;;;;26.33;5.90;;;20.30;94.40;;;;;;5055868;28;20037;-82
2023/11/15 07:08:41;;;;;;;20.90;5.88;;;20.50;94.20;;;;;;5068188;28;20113;-81
2023/11/15 07:11:08;;;;;;;26.63;6.15;;;20.60;93.90;;;;;;5064167;28;20500;-82
2023/11/15 07:13:34;;;;;;;31.25;6.22;;;20.70;93.70;;;;;;5060956;28;20496;-80
2023/11/15 07:16:02;;;;;;;23.35;6.38;;;21.00;93.50;;;;;;5040626;28;20075;-81
2023/11/15 07:18:34;;;;;;;25.73;5.97;;;21.60;92.90;;;;;;5052829;28;20072;-80
2023/11/15 07:21:00;;;;;;;24.30;5.10;;;21.80;92.30;;;;;;5053095;28;20473;-79
2023/11/15 07:23:26;;;;;;;24.60;6.55;;;21.50;92.20;;;;;;5077461;28;20040;-80
2023/11/15 07:25:54;;;;;;;23.27;6.18;;;21.30;92.50;;;;;;5069865;28;20052;-81
2023/11/15 07:28:21;;;;;;;24.02;5.97;;;21.10;92.70;;;;;;5053415;28;20061;-80
2023/11/15 07:30:47;;;;;;;29.08;7.80;;;20.90;93.00;;;;;;5053200;28;20028;-80
2023/11/15 07:33:14;;;;;;;29.08;6.88;;;20.80;93.10;;;;;;5058506;28;20119;-80
2023/11/15 07:35:40;;;;;;;25.15;7.50;;;20.70;93.20;;;;;;5055300;28;20032;-80
2023/11/15 07:38:09;;;;;;;31.08;6.20;;;20.60;93.40;;;;;;5073264;28;20039;-79
2023/11/15 07:40:38;;;;;;;27.27;6.32;;;20.60;93.40;;;;;;5069516;28;20033;-80
2023/11/15 07:43:05;;;;;;;26.63;6.28;;;20.60;93.40;;;;;;5072778;28;20032;-79
2023/11/15 07:45:35;;;;;;;31.42;6.57;;;20.70;93.40;;;;;;5072622;28;20414;-80
2023/11/15 07:48:04;;;;;;;37.72;7.75;;;20.70;93.30;;;;;;5073542;28;20501;-80
2023/11/15 07:50:32;;;;;;;34.70;7.03;;;20.70;93.40;;;;;;5073126;28;20067;-80
2023/11/15 07:52:57;;;;;;;30.88;6.50;;;20.80;93.30;;;;;;5073233;28;20036;-79
2023/11/15 07:55:24;;;;;;;29.75;6.85;;;20.80;93.20;;;;;;5072979;28;20032;-79
2023/11/15 07:57:50;;;;;;;34.28;7.10;;;20.90;93.20;;;;;;5072356;28;20021;-80
2023/11/15 08:00:22;;;;;;;27.30;6.20;;;20.90;93.20;;;;;;5072778;28;20400;-84
2023/11/15 08:02:52;;;;;;;26.25;7.35;;;20.90;93.20;;;;;;5073087;28;20029;-80
2023/11/15 08:05:20;;;;;;;26.70;6.05;;;21.00;93.20;;;;;;5069583;28;20068;-82
2023/11/15 08:07:49;;;;;;;32.58;7.63;;;21.00;93.10;;;;;;5071852;28;20111;-84
2023/11/15 08:10:15;;;;;;;32.33;6.05;;;21.00;93.00;;;;;;5073445;28;20451;-80
2023/11/15 08:12:45;;;;;;;33.17;7.10;;;21.10;92.90;;;;;;5054531;28;20043;-84
2023/11/15 08:15:14;;;;;;;22.98;6.25;;;21.20;92.80;;;;;;5076999;28;20055;-85
2023/11/15 08:17:44;;;;;;;24.45;6.03;;;21.30;92.70;;;;;;5080381;28;20020;-85
2023/11/15 08:20:10;;;;;;;29.30;6.80;;;21.40;92.50;;;;;;5074936;28;20032;-86
2023/11/15 08:22:39;;;;;;;27.33;5.65;;;21.40;92.50;;;;;;5077096;28;20033;-87
2023/11/15 08:25:09;;;;;;;32.00;6.70;;;21.40;92.40;;;;;;5077005;28;20051;-87
2023/11/15 08:27:38;;;;;;;27.15;6.38;;;21.40;92.40;;;;;;5077371;28;20161;-85
2023/11/15 08:30:10;;;;;;;26.42;5.82;;;21.30;92.30;;;;;;5059952;28;20378;-85
2023/11/15 08:32:36;;;;;;;28.70;7.00;;;21.30;92.50;;;;;;5087561;28;20021;-86
2023/11/15 08:35:02;;;;;;;34.28;6.40;;;21.20;92.50;;;;;;5090535;28;20055;-87
2023/11/15 08:37:27;;;;;;;26.55;6.10;;;21.10;92.40;;;;;;5085427;28;20053;-84
2023/11/15 08:39:53;;;;;;;26.20;6.68;;;21.10;92.50;;;;;;5096461;28;20056;-86
2023/11/15 08:42:21;;;;;;;26.27;6.32;;;21.00;92.50;;;;;;5077938;28;20040;-86
2023/11/15 08:44:48;;;;;;;29.00;6.82;;;21.00;92.50;;;;;;5098718;28;20079;-85
2023/11/15 08:47:13;;;;;;;28.60;6.85;;;21.00;92.60;;;;;;5095085;28;20004;-85
2023/11/15 08:49:39;;;;;;;30.92;7.10;;;21.00;92.60;;;;;;5086202;28;20381;-86
2023/11/15 08:52:06;;;;;;;35.47;7.28;;;21.00;92.50;;;;;;5078433;28;20079;-86
2023/11/15 08:54:32;;;;;;;29.73;6.88;;;21.00;92.50;;;;;;5077438;28;20090;-86
2023/11/15 08:56:57;;;;;;;28.35;6.45;;;21.10;92.40;;;;;;5077599;28;20040;-85
2023/11/15 08:59:26;;;;;;;30.75;6.75;;;21.20;92.40;;;;;;5077373;28;20036;-87
2023/11/15 09:01:54;;;;;;;33.00;6.88;;;21.30;92.30;;;;;;5077351;28;20093;-85
2023/11/15 09:04:20;;;;;;;28.88;7.05;;;21.30;92.10;;;;;;5077322;28;20044;-86
2023/11/15 09:06:51;;;;;;;20.05;5.40;;;21.30;92.00;;;;;;5077197;28;20024;-85
2023/11/15 09:09:17;;;;;;;22.45;6.30;;;21.30;92.00;;;;;;5077418;28;20503;-86
2023/11/15 09:11:44;;;;;;;28.52;6.40;;;21.50;91.90;;;;;;5059415;28;20033;-86
2023/11/15 09:14:10;;;;;;;27.23;5.55;;;21.60;91.70;;;;;;5081405;28;20037;-85
2023/11/15 09:16:41;;;;;;;28.95;6.18;;;21.70;91.50;;;;;;5082090;28;20067;-84
2023/11/15 09:19:10;;;;;;;32.00;6.13;;;21.80;91.30;;;;;;5059590;28;20052;-85
2023/11/15 09:21:36;;;;;;;29.88;6.00;;;21.90;91.20;;;;;;5076954;28;20028;-84
2023/11/15 09:24:02;;;;;;;27.08;5.72;;;21.80;91.20;;;;;;5077540;28;20058;-84
2023/11/15 09:26:27;;;;;;;23.95;5.38;;;21.80;91.20;;;;;;5077581;28;20527;-84
2023/11/15 09:28:53;;;;;;;27.58;5.88;;;21.80;91.10;;;;;;5058250;28;20051;-85
2023/11/15 09:31:19;;;;;;;25.65;6.97;;;21.90;90.90;;;;;;5075542;28;20044;-88
2023/11/15 09:33:45;;;;;;;26.67;6.47;;;22.10;90.80;;;;;;5081431;28;20028;-88
2023/11/15 09:36:11;;;;;;;30.08;7.57;;;22.10;90.70;;;;;;5092194;28;20051;-84
2023/11/15 09:38:39;;;;;;;32.10;6.72;;;22.20;90.60;;;;;;5082888;28;20045;-82
2023/11/15 09:41:11;;;;;;;28.33;6.57;;;22.20;90.50;;;;;;5075779;28;20500;-80
2023/11/15 09:43:39;;;;;;;26.50;6.95;;;22.20;90.40;;;;;;5075232;28;20056;-76
2023/11/15 09:46:10;;;;;;;28.98;6.63;;;22.30;90.20;;;;;;5074748;28;20131;-76
2023/11/15 09:48:38;;;;;;;30.25;7.65;;;22.30;89.80;;;;;;5074705;28;20031;-82
2023/11/15 09:51:06;;;;;;;28.02;7.50;;;22.30;89.90;;;;;;5075452;28;20024;-82
2023/11/15 09:53:34;;;;;;;26.48;7.50;;;22.40;89.80;;;;;;5057952;28;20035;-80
2023/11/15 09:56:04;;;;;;;27.55;8.10;;;22.50;90.00;;;;;;5075879;28;20029;-80
2023/11/15 09:58:30;;;;;;;30.17;8.25;;;22.50;89.80;;;;;;5074870;28;20103;-80
2023/11/15 10:00:56;;;;;;;38.13;9.75;;;22.70;89.70;;;;;;5074869;28;20047;-81
2023/11/15 10:03:22;;;;;;;31.35;8.32;;;22.90;89.00;;;;;;5075110;28;20476;-81
2023/11/15 10:05:59;;;;;;;34.35;6.13;;;23.10;88.60;;;;;;5075008;28;20070;-81
2023/11/15 10:08:26;;;;;;;31.25;6.35;;;23.10;88.10;;;;;;5057011;28;20043;-81
2023/11/15 10:11:09;;;;;;;21.67;5.38;;;23.20;87.80;;;;;;5057323;28;20431;-80
2023/11/15 10:13:39;;;;;;;27.58;6.90;;;23.20;88.40;;;;;;5075041;28;20033;-81
2023/11/15 10:16:30;;;;;;;23.08;5.90;;;23.10;87.70;;;;;;5074694;28;20032;-82
2023/11/15 10:18:56;;;;;;;27.05;5.70;;;23.10;87.40;;;;;;5075319;28;20111;-81
2023/11/15 10:21:22;;;;;;;25.50;5.95;;;23.00;87.40;;;;;;5056953;28;20042;-80
2023/11/15 10:23:51;;;;;;;18.55;5.25;;;23.00;87.70;;;;;;5074943;28;20450;-82
2023/11/15 10:26:17;;;;;;;24.25;6.28;;;22.90;88.20;;;;;;5056211;28;20415;-82
2023/11/15 10:28:44;;;;;;;23.08;5.60;;;22.90;87.80;;;;;;5075900;28;20049;-81
2023/11/15 10:31:14;;;;;;;25.38;6.05;;;22.90;87.50;;;;;;5054495;28;20071;-80
2023/11/15 10:33:45;;;;;;;24.52;6.93;;;22.80;87.40;;;;;;5054749;28;20497;-81
2023/11/15 10:36:22;;;;;;;29.92;6.28;;;22.70;87.60;;;;;;5054135;28;20045;-80
2023/11/15 10:38:51;;;;;;;31.02;6.80;;;22.70;87.80;;;;;;5061832;28;20043;-81
2023/11/15 10:41:22;;;;;;;32.63;7.88;;;22.70;87.70;;;;;;5060339;28;20386;-82
2023/11/15 10:43:52;;;;;;;27.98;7.53;;;22.70;87.80;;;;;;5054208;28;20362;-82
2023/11/15 10:46:30;;;;;;;28.58;6.82;;;22.60;87.40;;;;;;5054000;28;20087;-82
2023/11/15 10:49:01;;;;;;;30.45;6.72;;;22.60;87.40;;;;;;5053826;28;20041;-81
2023/11/15 10:51:41;;;;;;;29.17;7.55;;;22.60;87.70;;;;;;5053878;28;20021;-81
2023/11/15 10:54:13;;;;;;;32.00;7.78;;;22.60;87.70;;;;;;5053925;28;20083;-82
2023/11/15 10:56:41;;;;;;;29.30;7.47;;;22.70;87.70;;;;;;5054923;28;20029;-81
2023/11/15 10:59:12;;;;;;;26.85;7.63;;;22.70;87.60;;;;;;5073394;28;20036;-81
2023/11/15 11:01:40;;;;;;;33.90;8.30;;;22.70;87.70;;;;;;5073736;28;20055;-82
2023/11/15 11:04:08;;;;;;;20.67;6.35;;;22.70;87.10;;;;;;5074973;28;20071;-82
2023/11/15 11:06:47;;;;;;;26.08;7.25;;;22.70;87.80;;;;;;5043291;28;20413;-81
2023/11/15 11:09:39;;;;;;;27.08;7.50;;;22.80;87.70;;;;;;5054039;28;20504;-78
2023/11/15 11:12:12;;;;;;;26.38;7.63;;;22.80;87.60;;;;;;5036556;28;20032;-83
2023/11/15 11:14:39;;;;;;;28.73;7.22;;;22.80;87.00;;;;;;5063947;28;20032;-80
2023/11/15 11:17:32;;;;;;;25.90;6.30;;;22.90;87.20;;;;;;5060372;28;20489;-89
2023/11/15 11:20:00;;;;;;;20.67;5.65;;;22.90;87.30;;;;;;5043268;28;20079;-76
2023/11/15 11:22:26;;;;;;;26.60;6.97;;;22.90;86.90;;;;;;5052263;28;20049;-82
2023/11/15 11:25:07;;;;;;;25.38;7.70;;;22.90;87.10;;;;;;5053806;28;20048;-85
2023/11/15 11:27:33;;;;;;;27.58;6.97;;;22.90;87.40;;;;;;5054439;28;20466;-80
2023/11/15 11:30:02;;;;;;;26.75;6.97;;;22.80;87.10;;;;;;5052846;28;20090;-81
2023/11/15 11:32:32;;;;;;;23.48;6.25;;;22.80;87.40;;;;;;5054149;28;20456;-91
2023/11/15 11:35:00;;;;;;;23.52;5.63;;;22.70;87.00;;;;;;5053372;28;20037;-74
2023/11/15 11:37:59;;;;;;;24.17;6.20;;;22.70;87.10;;;;;;5053726;28;20041;-84
2023/11/15 11:40:32;;;;;;;23.80;6.68;;;22.70;86.80;;;;;;5053369;28;20064;-79
2023/11/15 11:43:29;;;;;;;21.60;5.55;;;22.70;86.70;;;;;;5054027;28;20079;-81
2023/11/15 11:45:56;;;;;;;23.92;5.82;;;22.80;86.90;;;;;;5067414;28;20079;-88
2023/11/15 11:48:28;;;;;;;22.83;5.70;;;22.90;86.30;;;;;;5054492;28;20073;-81
2023/11/15 11:51:11;;;;;;;23.92;6.25;;;23.00;86.10;;;;;;5060309;28;20512;-82
2023/11/15 11:53:42;;;;;;;25.23;7.22;;;23.00;86.00;;;;;;5054529;28;20037;-75
2023/11/15 11:56:13;;;;;;;24.58;5.63;;;23.00;85.80;;;;;;5059188;28;20044;-87
2023/11/15 11:58:41;;;;;;;19.98;5.32;;;23.00;85.70;;;;;;5064959;28;20033;-80
2023/11/15 12:01:10;;;;;;;24.48;6.05;;;23.00;85.70;;;;;;5057490;28;20086;-78
2023/11/15 12:03:39;;;;;;;22.13;6.97;;;23.00;85.40;;;;;;5058650;28;20083;-87
2023/11/15 12:06:10;;;;;;;24.55;5.53;;;23.10;85.50;;;;;;5059478;28;20182;-81
2023/11/15 12:08:38;;;;;;;27.48;6.78;;;23.20;85.00;;;;;;5079139;28;20044;-82
2023/11/15 12:11:08;;;;;;;25.73;6.95;;;23.20;84.40;;;;;;5059922;28;20067;-81
2023/11/15 12:13:50;;;;;;;25.05;6.70;;;23.30;84.20;;;;;;5073726;28;20073;-82
2023/11/15 12:16:25;;;;;;;20.92;5.65;;;23.40;84.20;;;;;;5085431;28;20090;-83
2023/11/15 12:19:09;;;;;;;21.92;6.78;;;23.60;83.70;;;;;;5076837;28;20040;-82
2023/11/15 12:21:43;;;;;;;26.52;5.78;;;23.70;83.20;;;;;;5074497;28;20040;-80
2023/11/15 12:24:11;;;;;;;;;;;23.90;82.70;;;;;;5057109;28;20396;-79
2023/11/15 12:26:46;;;;;;;17.63;4.75;;;24.00;82.80;;;;;;5076167;28;19995;-80
2023/11/15 12:29:27;;;;;;;17.00;5.28;;;24.10;82.10;;;;;;5076595;28;20053;-78
2023/11/15 12:31:56;;;;;;;19.73;5.43;;;24.20;81.70;;;;;;5076072;28;20542;-78
2023/11/15 12:34:22;;;;;;;16.88;5.70;;;24.30;80.80;;;;;;5076089;28;20047;-82
2023/11/15 12:36:50;;;;;;;25.42;5.43;;;24.40;80.40;;;;;;5058616;28;20587;-77
2023/11/15 12:39:16;;;;;;;22.60;5.65;;;24.50;80.00;;;;;;5076177;28;20222;-82
2023/11/15 12:41:49;;;;;;;24.38;5.13;;;24.50;79.60;;;;;;5076756;28;20029;-79